sensor_id;sensor_type;location;lat;lon;timestamp;P1;durP1;ratioP1;P2;durP2;ratioP2
16845;SDS011;8539;53.188;8.696;2023-04-01T00:00:55;25.33;;;16.33;;
16845;SDS011;8539;53.188;8.696;2023-04-01T00:03:24;24.67;;;16.88;;
16845;SDS011;8539;53.188;8.696;2023-04-01T00:05:54;24.52;;;16.48;;
16845;SDS011;8539;53.188;8.696;2023-04-01T00:08:21;20.88;;;15.25;;
16845;SDS011;8539;53.188;8.696;2023-04-01T00:10:47;23.38;;;15.25;;
16845;SDS011;8539;53.188;8.696;2023-04-01T00:13:14;19.67;;;15.35;;
16845;SDS011;8539;53.188;8.696;2023-04-01T00:15:41;26.92;;;15.73;;
16845;SDS011;8539;53.188;8.696;2023-04-01T00:18:08;21.25;;;13.25;;
16845;SDS011;8539;53.188;8.696;2023-04-01T00:20:34;22.15;;;13.82;;
16845;SDS011;8539;53.188;8.696;2023-04-01T00:23:01;17.33;;;12.95;;
16845;SDS011;8539;53.188;8.696;2023-04-01T00:25:27;23.17;;;13.57;;
16845;SDS011;8539;53.188;8.696;2023-04-01T00:27:53;18.70;;;12.13;;
16845;SDS011;8539;53.188;8.696;2023-04-01T00:30:20;19.15;;;11.82;;
16845;SDS011;8539;53.188;8.696;2023-04-01T00:32:46;19.27;;;11.90;;
16845;SDS011;8539;53.188;8.696;2023-04-01T00:35:12;18.60;;;12.48;;
16845;SDS011;8539;53.188;8.696;2023-04-01T00:37:38;21.45;;;11.73;;
16845;SDS011;8539;53.188;8.696;2023-04-01T00:40:08;16.00;;;11.75;;
16845;SDS011;8539;53.188;8.696;2023-04-01T00:42:52;15.75;;;11.10;;
16845;SDS011;8539;53.188;8.696;2023-04-01T00:45:35;17.42;;;11.27;;
16845;SDS011;8539;53.188;8.696;2023-04-01T00:48:07;17.52;;;11.68;;
16845;SDS011;8539;53.188;8.696;2023-04-01T00:50:37;18.92;;;12.25;;
16845;SDS011;8539;53.188;8.696;2023-04-01T00:53:05;21.38;;;11.63;;
16845;SDS011;8539;53.188;8.696;2023-04-01T00:55:34;16.92;;;12.25;;
16845;SDS011;8539;53.188;8.696;2023-04-01T00:58:05;16.98;;;12.05;;
16845;SDS011;8539;53.188;8.696;2023-04-01T01:00:35;19.75;;;12.90;;
16845;SDS011;8539;53.188;8.696;2023-04-01T01:03:02;15.75;;;11.18;;
16845;SDS011;8539;53.188;8.696;2023-04-01T01:05:46;18.10;;;12.93;;
16845;SDS011;8539;53.188;8.696;2023-04-01T01:08:43;19.05;;;11.88;;
16845;SDS011;8539;53.188;8.696;2023-04-01T01:11:37;15.93;;;11.63;;
16845;SDS011;8539;53.188;8.696;2023-04-01T01:15:00;16.70;;;11.68;;
16845;SDS011;8539;53.188;8.696;2023-04-01T01:33:48;19.67;;;13.55;;
16845;SDS011;8539;53.188;8.696;2023-04-01T01:36:16;17.60;;;13.02;;
16845;SDS011;8539;53.188;8.696;2023-04-01T01:38:47;23.42;;;14.38;;
16845;SDS011;8539;53.188;8.696;2023-04-01T01:41:15;20.10;;;14.35;;
16845;SDS011;8539;53.188;8.696;2023-04-01T01:43:44;23.70;;;13.52;;
16845;SDS011;8539;53.188;8.696;2023-04-01T01:46:14;18.98;;;12.30;;
16845;SDS011;8539;53.188;8.696;2023-04-01T01:48:44;23.75;;;14.98;;
16845;SDS011;8539;53.188;8.696;2023-04-01T01:51:12;20.63;;;12.80;;
16845;SDS011;8539;53.188;8.696;2023-04-01T01:53:39;25.85;;;13.73;;
16845;SDS011;8539;53.188;8.696;2023-04-01T01:56:05;18.40;;;12.77;;
16845;SDS011;8539;53.188;8.696;2023-04-01T01:58:36;17.52;;;12.90;;
16845;SDS011;8539;53.188;8.696;2023-04-01T02:01:15;19.50;;;12.98;;
16845;SDS011;8539;53.188;8.696;2023-04-01T02:03:45;20.95;;;13.15;;
16845;SDS011;8539;53.188;8.696;2023-04-01T02:06:15;20.08;;;13.05;;
16845;SDS011;8539;53.188;8.696;2023-04-01T02:08:44;25.60;;;13.32;;
16845;SDS011;8539;53.188;8.696;2023-04-01T02:11:33;16.63;;;12.60;;
16845;SDS011;8539;53.188;8.696;2023-04-01T02:14:11;16.92;;;12.38;;
16845;SDS011;8539;53.188;8.696;2023-04-01T02:16:44;16.95;;;12.63;;
16845;SDS011;8539;53.188;8.696;2023-04-01T02:19:11;16.63;;;12.13;;
16845;SDS011;8539;53.188;8.696;2023-04-01T02:21:40;21.33;;;12.07;;
16845;SDS011;8539;53.188;8.696;2023-04-01T02:24:10;18.77;;;12.27;;
16845;SDS011;8539;53.188;8.696;2023-04-01T02:26:38;20.08;;;12.55;;
16845;SDS011;8539;53.188;8.696;2023-04-01T02:29:05;18.55;;;12.88;;
16845;SDS011;8539;53.188;8.696;2023-04-01T02:31:33;19.13;;;12.50;;
16845;SDS011;8539;53.188;8.696;2023-04-01T02:34:00;15.48;;;12.05;;
16845;SDS011;8539;53.188;8.696;2023-04-01T02:36:28;17.52;;;12.32;;
16845;SDS011;8539;53.188;8.696;2023-04-01T02:38:54;19.02;;;12.13;;
16845;SDS011;8539;53.188;8.696;2023-04-01T02:41:27;18.90;;;12.73;;
16845;SDS011;8539;53.188;8.696;2023-04-01T02:43:53;19.42;;;13.43;;
16845;SDS011;8539;53.188;8.696;2023-04-01T02:46:20;16.65;;;11.50;;
16845;SDS011;8539;53.188;8.696;2023-04-01T02:48:46;17.35;;;11.40;;
16845;SDS011;8539;53.188;8.696;2023-04-01T02:51:12;18.73;;;13.57;;
16845;SDS011;8539;53.188;8.696;2023-04-01T02:53:38;15.43;;;12.40;;
16845;SDS011;8539;53.188;8.696;2023-04-01T02:56:05;18.15;;;13.50;;
16845;SDS011;8539;53.188;8.696;2023-04-01T02:58:32;16.85;;;12.55;;
16845;SDS011;8539;53.188;8.696;2023-04-01T03:00:58;17.88;;;12.98;;
16845;SDS011;8539;53.188;8.696;2023-04-01T03:03:24;22.25;;;13.35;;
16845;SDS011;8539;53.188;8.696;2023-04-01T03:05:51;15.02;;;12.55;;
16845;SDS011;8539;53.188;8.696;2023-04-01T03:08:17;19.70;;;13.73;;
16845;SDS011;8539;53.188;8.696;2023-04-01T03:10:43;17.98;;;13.02;;
16845;SDS011;8539;53.188;8.696;2023-04-01T03:13:09;17.60;;;13.93;;
16845;SDS011;8539;53.188;8.696;2023-04-01T03:15:35;18.00;;;13.13;;
16845;SDS011;8539;53.188;8.696;2023-04-01T03:18:01;18.13;;;13.05;;
16845;SDS011;8539;53.188;8.696;2023-04-01T03:20:28;24.35;;;14.30;;
16845;SDS011;8539;53.188;8.696;2023-04-01T03:22:54;18.92;;;13.20;;
16845;SDS011;8539;53.188;8.696;2023-04-01T03:25:22;18.70;;;13.38;;
16845;SDS011;8539;53.188;8.696;2023-04-01T03:27:48;16.20;;;12.35;;
16845;SDS011;8539;53.188;8.696;2023-04-01T03:30:14;22.30;;;12.55;;
16845;SDS011;8539;53.188;8.696;2023-04-01T03:32:40;17.20;;;11.77;;
16845;SDS011;8539;53.188;8.696;2023-04-01T03:35:07;15.30;;;11.27;;
16845;SDS011;8539;53.188;8.696;2023-04-01T03:37:35;17.02;;;12.73;;
16845;SDS011;8539;53.188;8.696;2023-04-01T03:40:01;15.40;;;12.00;;
16845;SDS011;8539;53.188;8.696;2023-04-01T03:42:27;17.13;;;12.95;;
16845;SDS011;8539;53.188;8.696;2023-04-01T03:44:53;17.08;;;13.25;;
16845;SDS011;8539;53.188;8.696;2023-04-01T03:47:20;14.98;;;12.20;;
16845;SDS011;8539;53.188;8.696;2023-04-01T03:49:46;18.85;;;11.73;;
16845;SDS011;8539;53.188;8.696;2023-04-01T03:52:12;17.40;;;12.27;;
16845;SDS011;8539;53.188;8.696;2023-04-01T03:54:39;17.33;;;12.05;;
16845;SDS011;8539;53.188;8.696;2023-04-01T03:57:05;15.20;;;12.40;;
16845;SDS011;8539;53.188;8.696;2023-04-01T03:59:31;21.83;;;13.95;;
16845;SDS011;8539;53.188;8.696;2023-04-01T04:01:57;18.05;;;12.57;;
16845;SDS011;8539;53.188;8.696;2023-04-01T04:04:23;18.95;;;13.20;;
16845;SDS011;8539;53.188;8.696;2023-04-01T04:06:50;15.48;;;12.65;;
16845;SDS011;8539;53.188;8.696;2023-04-01T04:09:17;16.70;;;12.13;;
16845;SDS011;8539;53.188;8.696;2023-04-01T04:11:43;16.67;;;13.18;;
16845;SDS011;8539;53.188;8.696;2023-04-01T04:14:09;19.15;;;11.95;;
16845;SDS011;8539;53.188;8.696;2023-04-01T04:16:35;16.45;;;12.63;;
16845;SDS011;8539;53.188;8.696;2023-04-01T04:19:02;19.10;;;11.70;;
16845;SDS011;8539;53.188;8.696;2023-04-01T04:21:29;15.93;;;12.52;;
16845;SDS011;8539;53.188;8.696;2023-04-01T04:23:55;17.15;;;11.63;;
16845;SDS011;8539;53.188;8.696;2023-04-01T04:26:21;16.45;;;11.32;;
16845;SDS011;8539;53.188;8.696;2023-04-01T04:28:47;14.20;;;10.15;;
16845;SDS011;8539;53.188;8.696;2023-04-01T04:31:18;18.05;;;11.27;;
16845;SDS011;8539;53.188;8.696;2023-04-01T04:33:46;13.35;;;11.48;;
16845;SDS011;8539;53.188;8.696;2023-04-01T04:36:12;14.93;;;10.35;;
16845;SDS011;8539;53.188;8.696;2023-04-01T04:38:39;24.08;;;11.25;;
16845;SDS011;8539;53.188;8.696;2023-04-01T04:41:12;18.20;;;11.68;;
16845;SDS011;8539;53.188;8.696;2023-04-01T04:43:39;14.93;;;11.10;;
16845;SDS011;8539;53.188;8.696;2023-04-01T04:46:07;19.08;;;11.50;;
16845;SDS011;8539;53.188;8.696;2023-04-01T04:48:34;16.20;;;11.13;;
16845;SDS011;8539;53.188;8.696;2023-04-01T04:51:01;12.38;;;9.52;;
16845;SDS011;8539;53.188;8.696;2023-04-01T04:53:28;12.20;;;8.95;;
16845;SDS011;8539;53.188;8.696;2023-04-01T04:55:55;13.38;;;9.68;;
16845;SDS011;8539;53.188;8.696;2023-04-01T04:58:21;13.57;;;8.52;;
16845;SDS011;8539;53.188;8.696;2023-04-01T05:00:47;12.30;;;9.77;;
16845;SDS011;8539;53.188;8.696;2023-04-01T05:03:13;16.38;;;10.18;;
16845;SDS011;8539;53.188;8.696;2023-04-01T05:05:40;18.45;;;10.35;;
16845;SDS011;8539;53.188;8.696;2023-04-01T05:08:14;16.90;;;9.35;;
16845;SDS011;8539;53.188;8.696;2023-04-01T05:10:40;11.90;;;9.38;;
16845;SDS011;8539;53.188;8.696;2023-04-01T05:13:06;16.92;;;9.73;;
16845;SDS011;8539;53.188;8.696;2023-04-01T05:15:32;22.48;;;10.70;;
16845;SDS011;8539;53.188;8.696;2023-04-01T05:17:59;18.27;;;9.90;;
16845;SDS011;8539;53.188;8.696;2023-04-01T05:20:25;18.80;;;9.65;;
16845;SDS011;8539;53.188;8.696;2023-04-01T05:22:55;16.33;;;10.10;;
16845;SDS011;8539;53.188;8.696;2023-04-01T05:25:25;14.27;;;9.38;;
16845;SDS011;8539;53.188;8.696;2023-04-01T05:27:51;14.27;;;9.93;;
16845;SDS011;8539;53.188;8.696;2023-04-01T05:30:18;12.52;;;9.68;;
16845;SDS011;8539;53.188;8.696;2023-04-01T05:32:44;19.23;;;10.68;;
16845;SDS011;8539;53.188;8.696;2023-04-01T05:35:10;13.60;;;8.90;;
16845;SDS011;8539;53.188;8.696;2023-04-01T05:37:37;12.77;;;10.18;;
16845;SDS011;8539;53.188;8.696;2023-04-01T05:40:03;16.08;;;9.48;;
16845;SDS011;8539;53.188;8.696;2023-04-01T05:42:30;15.73;;;9.45;;
16845;SDS011;8539;53.188;8.696;2023-04-01T05:44:56;19.15;;;9.73;;
16845;SDS011;8539;53.188;8.696;2023-04-01T05:47:22;12.77;;;9.52;;
16845;SDS011;8539;53.188;8.696;2023-04-01T05:49:48;16.08;;;10.35;;
16845;SDS011;8539;53.188;8.696;2023-04-01T05:52:15;17.00;;;11.55;;
16845;SDS011;8539;53.188;8.696;2023-04-01T05:54:41;16.58;;;10.20;;
16845;SDS011;8539;53.188;8.696;2023-04-01T05:57:07;12.77;;;9.27;;
16845;SDS011;8539;53.188;8.696;2023-04-01T05:59:34;17.92;;;9.32;;
16845;SDS011;8539;53.188;8.696;2023-04-01T06:02:00;16.20;;;9.45;;
16845;SDS011;8539;53.188;8.696;2023-04-01T06:04:27;15.98;;;8.98;;
16845;SDS011;8539;53.188;8.696;2023-04-01T06:06:58;16.88;;;9.50;;
16845;SDS011;8539;53.188;8.696;2023-04-01T06:09:26;14.27;;;8.48;;
16845;SDS011;8539;53.188;8.696;2023-04-01T06:12:09;13.35;;;9.52;;
16845;SDS011;8539;53.188;8.696;2023-04-01T06:18:31;11.27;;;9.10;;
16845;SDS011;8539;53.188;8.696;2023-04-01T06:24:09;11.25;;;8.43;;
16845;SDS011;8539;53.188;8.696;2023-04-01T06:27:02;11.43;;;8.20;;
16845;SDS011;8539;53.188;8.696;2023-04-01T06:29:41;11.85;;;8.23;;
16845;SDS011;8539;53.188;8.696;2023-04-01T06:43:02;12.88;;;7.70;;
16845;SDS011;8539;53.188;8.696;2023-04-01T06:45:53;11.57;;;7.68;;
16845;SDS011;8539;53.188;8.696;2023-04-01T06:48:28;8.20;;;6.72;;
16845;SDS011;8539;53.188;8.696;2023-04-01T06:51:09;18.02;;;7.63;;
16845;SDS011;8539;53.188;8.696;2023-04-01T06:54:03;7.25;;;6.50;;
16845;SDS011;8539;53.188;8.696;2023-04-01T06:56:34;8.30;;;6.40;;
16845;SDS011;8539;53.188;8.696;2023-04-01T06:59:06;7.65;;;5.38;;
16845;SDS011;8539;53.188;8.696;2023-04-01T07:01:42;9.18;;;6.75;;
16845;SDS011;8539;53.188;8.696;2023-04-01T07:04:21;11.48;;;7.18;;
16845;SDS011;8539;53.188;8.696;2023-04-01T07:09:54;8.52;;;5.43;;
16845;SDS011;8539;53.188;8.696;2023-04-01T07:12:20;9.70;;;6.20;;
16845;SDS011;8539;53.188;8.696;2023-04-01T07:14:53;12.55;;;6.35;;
16845;SDS011;8539;53.188;8.696;2023-04-01T07:17:33;11.63;;;5.63;;
16845;SDS011;8539;53.188;8.696;2023-04-01T07:20:23;9.05;;;5.57;;
16845;SDS011;8539;53.188;8.696;2023-04-01T07:22:59;5.70;;;5.07;;
16845;SDS011;8539;53.188;8.696;2023-04-01T07:25:33;5.78;;;4.53;;
16845;SDS011;8539;53.188;8.696;2023-04-01T07:28:10;5.22;;;4.53;;
16845;SDS011;8539;53.188;8.696;2023-04-01T07:33:25;5.85;;;4.20;;
16845;SDS011;8539;53.188;8.696;2023-04-01T07:47:39;5.78;;;3.97;;
16845;SDS011;8539;53.188;8.696;2023-04-01T07:50:27;3.85;;;3.45;;
16845;SDS011;8539;53.188;8.696;2023-04-01T07:55:55;11.00;;;4.15;;
16845;SDS011;8539;53.188;8.696;2023-04-01T08:01:23;6.15;;;3.60;;
16845;SDS011;8539;53.188;8.696;2023-04-01T08:04:22;4.70;;;3.10;;
16845;SDS011;8539;53.188;8.696;2023-04-01T08:15:11;5.65;;;3.58;;
16845;SDS011;8539;53.188;8.696;2023-04-01T08:17:45;3.55;;;3.13;;
16845;SDS011;8539;53.188;8.696;2023-04-01T08:23:13;4.30;;;2.83;;
16845;SDS011;8539;53.188;8.696;2023-04-01T08:25:45;3.05;;;2.83;;
16845;SDS011;8539;53.188;8.696;2023-04-01T08:28:41;3.88;;;2.67;;
16845;SDS011;8539;53.188;8.696;2023-04-01T08:31:15;3.35;;;1.92;;
16845;SDS011;8539;53.188;8.696;2023-04-01T08:33:52;3.55;;;1.77;;
16845;SDS011;8539;53.188;8.696;2023-04-01T08:36:24;2.58;;;2.00;;
16845;SDS011;8539;53.188;8.696;2023-04-01T08:47:46;1.63;;;1.50;;
16845;SDS011;8539;53.188;8.696;2023-04-01T08:53:45;1.63;;;1.50;;
16845;SDS011;8539;53.188;8.696;2023-04-01T09:27:52;4.85;;;2.78;;
16845;SDS011;8539;53.188;8.696;2023-04-01T09:36:38;3.20;;;1.90;;
16845;SDS011;8539;53.188;8.696;2023-04-01T09:56:34;2.38;;;0.52;;
16845;SDS011;8539;53.188;8.696;2023-04-01T10:02:09;1.10;;;1.00;;
16845;SDS011;8539;53.188;8.696;2023-04-01T10:08:07;1.58;;;0.70;;
16845;SDS011;8539;53.188;8.696;2023-04-01T10:16:13;0.50;;;0.50;;
16845;SDS011;8539;53.188;8.696;2023-04-01T10:24:42;1.15;;;0.60;;
16845;SDS011;8539;53.188;8.696;2023-04-01T10:27:16;0.70;;;0.70;;
16845;SDS011;8539;53.188;8.696;2023-04-01T10:46:41;0.55;;;0.55;;
16845;SDS011;8539;53.188;8.696;2023-04-01T11:06:34;0.70;;;0.70;;
16845;SDS011;8539;53.188;8.696;2023-04-01T11:09:44;0.68;;;0.68;;
16845;SDS011;8539;53.188;8.696;2023-04-01T11:18:57;1.75;;;1.50;;
16845;SDS011;8539;53.188;8.696;2023-04-01T11:26:51;1.55;;;1.10;;
16845;SDS011;8539;53.188;8.696;2023-04-01T11:40:11;1.20;;;1.08;;
16845;SDS011;8539;53.188;8.696;2023-04-01T11:54:17;1.40;;;1.20;;
16845;SDS011;8539;53.188;8.696;2023-04-01T12:11:20;1.55;;;0.82;;
16845;SDS011;8539;53.188;8.696;2023-04-01T12:14:14;1.20;;;1.10;;
16845;SDS011;8539;53.188;8.696;2023-04-01T12:30:30;2.22;;;1.23;;
16845;SDS011;8539;53.188;8.696;2023-04-01T12:42:17;2.03;;;0.80;;
16845;SDS011;8539;53.188;8.696;2023-04-01T12:48:51;1.52;;;1.38;;
16845;SDS011;8539;53.188;8.696;2023-04-01T12:53:40;1.10;;;1.00;;
16845;SDS011;8539;53.188;8.696;2023-04-01T12:56:44;1.55;;;0.80;;
16845;SDS011;8539;53.188;8.696;2023-04-01T13:02:01;0.73;;;0.73;;
16845;SDS011;8539;53.188;8.696;2023-04-01T13:29:55;0.90;;;0.70;;
16845;SDS011;8539;53.188;8.696;2023-04-01T13:43:50;1.98;;;1.10;;
16845;SDS011;8539;53.188;8.696;2023-04-01T13:57:43;5.90;;;2.33;;
16845;SDS011;8539;53.188;8.696;2023-04-01T14:03:47;6.63;;;2.45;;
16845;SDS011;8539;53.188;8.696;2023-04-01T14:11:40;2.05;;;1.20;;
16845;SDS011;8539;53.188;8.696;2023-04-01T14:30:35;2.58;;;2.22;;
16845;SDS011;8539;53.188;8.696;2023-04-01T14:33:31;2.05;;;1.83;;
16845;SDS011;8539;53.188;8.696;2023-04-01T14:36:12;1.98;;;1.77;;
16845;SDS011;8539;53.188;8.696;2023-04-01T14:42:15;2.58;;;2.17;;
16845;SDS011;8539;53.188;8.696;2023-04-01T14:50:27;4.15;;;3.75;;
16845;SDS011;8539;53.188;8.696;2023-04-01T14:52:59;5.03;;;3.85;;
16845;SDS011;8539;53.188;8.696;2023-04-01T14:55:50;4.30;;;3.17;;
16845;SDS011;8539;53.188;8.696;2023-04-01T14:58:21;5.00;;;3.25;;
16845;SDS011;8539;53.188;8.696;2023-04-01T15:01:06;5.55;;;3.05;;
16845;SDS011;8539;53.188;8.696;2023-04-01T15:14:39;6.50;;;5.90;;
16845;SDS011;8539;53.188;8.696;2023-04-01T15:25:15;7.65;;;6.13;;
16845;SDS011;8539;53.188;8.696;2023-04-01T15:27:51;5.78;;;4.97;;
16845;SDS011;8539;53.188;8.696;2023-04-01T15:39:22;8.63;;;6.75;;
16845;SDS011;8539;53.188;8.696;2023-04-01T15:48:06;8.25;;;6.80;;
16845;SDS011;8539;53.188;8.696;2023-04-01T15:55:27;9.98;;;4.70;;
16845;SDS011;8539;53.188;8.696;2023-04-01T16:00:44;5.93;;;4.13;;
16845;SDS011;8539;53.188;8.696;2023-04-01T16:06:34;5.00;;;4.13;;
16845;SDS011;8539;53.188;8.696;2023-04-01T16:12:03;6.38;;;3.38;;
16845;SDS011;8539;53.188;8.696;2023-04-01T16:14:44;4.70;;;2.95;;
16845;SDS011;8539;53.188;8.696;2023-04-01T16:20:18;4.35;;;3.95;;
16845;SDS011;8539;53.188;8.696;2023-04-01T16:25:51;5.80;;;5.25;;
16845;SDS011;8539;53.188;8.696;2023-04-01T16:31:31;5.15;;;4.65;;
16845;SDS011;8539;53.188;8.696;2023-04-01T16:34:02;7.15;;;4.22;;
16845;SDS011;8539;53.188;8.696;2023-04-01T16:37:03;8.50;;;4.68;;
16845;SDS011;8539;53.188;8.696;2023-04-01T16:48:20;7.10;;;6.15;;
16845;SDS011;8539;53.188;8.696;2023-04-01T16:59:35;8.00;;;6.03;;
16845;SDS011;8539;53.188;8.696;2023-04-01T17:01:40;9.13;;;6.15;;
16845;SDS011;8539;53.188;8.696;2023-04-01T17:04:57;8.90;;;6.13;;
16845;SDS011;8539;53.188;8.696;2023-04-01T17:09:44;10.07;;;6.13;;
16845;SDS011;8539;53.188;8.696;2023-04-01T17:24:34;7.65;;;5.78;;
16845;SDS011;8539;53.188;8.696;2023-04-01T17:30:13;11.35;;;6.85;;
16845;SDS011;8539;53.188;8.696;2023-04-01T17:32:50;10.00;;;6.07;;
16845;SDS011;8539;53.188;8.696;2023-04-01T17:35:33;14.00;;;7.15;;
16845;SDS011;8539;53.188;8.696;2023-04-01T17:52:21;8.45;;;6.25;;
16845;SDS011;8539;53.188;8.696;2023-04-01T17:54:53;7.20;;;5.93;;
16845;SDS011;8539;53.188;8.696;2023-04-01T17:57:30;7.93;;;5.90;;
16845;SDS011;8539;53.188;8.696;2023-04-01T18:17:06;9.40;;;6.22;;
16845;SDS011;8539;53.188;8.696;2023-04-01T18:22:45;12.32;;;7.28;;
16845;SDS011;8539;53.188;8.696;2023-04-01T18:25:48;11.45;;;7.32;;
16845;SDS011;8539;53.188;8.696;2023-04-01T18:31:19;11.52;;;7.57;;
16845;SDS011;8539;53.188;8.696;2023-04-01T18:36:24;11.02;;;7.50;;
16845;SDS011;8539;53.188;8.696;2023-04-01T18:39:13;10.50;;;6.00;;
16845;SDS011;8539;53.188;8.696;2023-04-01T18:47:36;11.38;;;7.10;;
16845;SDS011;8539;53.188;8.696;2023-04-01T18:52:48;18.15;;;7.35;;
16845;SDS011;8539;53.188;8.696;2023-04-01T18:59:03;13.77;;;6.82;;
16845;SDS011;8539;53.188;8.696;2023-04-01T19:01:23;11.45;;;6.28;;
16845;SDS011;8539;53.188;8.696;2023-04-01T19:06:35;9.15;;;5.53;;
16845;SDS011;8539;53.188;8.696;2023-04-01T19:20:22;10.35;;;6.35;;
16845;SDS011;8539;53.188;8.696;2023-04-01T19:25:44;10.25;;;5.20;;
16845;SDS011;8539;53.188;8.696;2023-04-01T19:31:35;11.95;;;5.50;;
16845;SDS011;8539;53.188;8.696;2023-04-01T19:34:08;10.73;;;6.63;;
16845;SDS011;8539;53.188;8.696;2023-04-01T19:39:23;7.80;;;5.30;;
16845;SDS011;8539;53.188;8.696;2023-04-01T19:50:02;8.60;;;6.75;;
16845;SDS011;8539;53.188;8.696;2023-04-01T19:52:33;8.27;;;5.70;;
16845;SDS011;8539;53.188;8.696;2023-04-01T20:00:47;9.68;;;6.47;;
16845;SDS011;8539;53.188;8.696;2023-04-01T20:03:23;9.60;;;6.13;;
16845;SDS011;8539;53.188;8.696;2023-04-01T20:08:37;11.48;;;7.13;;
16845;SDS011;8539;53.188;8.696;2023-04-01T20:19:43;8.40;;;6.47;;
16845;SDS011;8539;53.188;8.696;2023-04-01T20:25:10;10.55;;;6.03;;
16845;SDS011;8539;53.188;8.696;2023-04-01T20:27:44;6.53;;;5.05;;
16845;SDS011;8539;53.188;8.696;2023-04-01T20:30:38;11.20;;;5.22;;
16845;SDS011;8539;53.188;8.696;2023-04-01T20:37:14;7.82;;;5.82;;
16845;SDS011;8539;53.188;8.696;2023-04-01T20:42:34;9.77;;;5.13;;
16845;SDS011;8539;53.188;8.696;2023-04-01T20:51:16;9.23;;;5.30;;
16845;SDS011;8539;53.188;8.696;2023-04-01T20:57:01;14.88;;;8.30;;
16845;SDS011;8539;53.188;8.696;2023-04-01T20:59:50;10.98;;;6.57;;
16845;SDS011;8539;53.188;8.696;2023-04-01T21:10:26;12.40;;;6.80;;
16845;SDS011;8539;53.188;8.696;2023-04-01T21:27:03;7.88;;;5.82;;
16845;SDS011;8539;53.188;8.696;2023-04-01T22:11:40;3.78;;;3.08;;
16845;SDS011;8539;53.188;8.696;2023-04-01T22:14:21;4.93;;;2.88;;
16845;SDS011;8539;53.188;8.696;2023-04-01T22:22:30;4.60;;;3.10;;
16845;SDS011;8539;53.188;8.696;2023-04-01T22:25:39;7.93;;;2.90;;
16845;SDS011;8539;53.188;8.696;2023-04-01T22:28:03;6.75;;;2.60;;
16845;SDS011;8539;53.188;8.696;2023-04-01T22:30:39;4.00;;;2.42;;
16845;SDS011;8539;53.188;8.696;2023-04-01T22:33:30;7.80;;;3.45;;
16845;SDS011;8539;53.188;8.696;2023-04-01T22:50:40;9.85;;;2.78;;
16845;SDS011;8539;53.188;8.696;2023-04-01T22:53:32;5.10;;;2.72;;
16845;SDS011;8539;53.188;8.696;2023-04-01T22:56:27;7.45;;;3.00;;
16845;SDS011;8539;53.188;8.696;2023-04-01T22:59:06;3.95;;;3.17;;
16845;SDS011;8539;53.188;8.696;2023-04-01T23:01:57;3.97;;;2.88;;
16845;SDS011;8539;53.188;8.696;2023-04-01T23:04:35;10.60;;;2.78;;
16845;SDS011;8539;53.188;8.696;2023-04-01T23:07:14;4.70;;;2.55;;
16845;SDS011;8539;53.188;8.696;2023-04-01T23:10:03;7.47;;;2.90;;
16845;SDS011;8539;53.188;8.696;2023-04-01T23:12:37;6.75;;;2.55;;
16845;SDS011;8539;53.188;8.696;2023-04-01T23:15:10;6.80;;;2.25;;
16845;SDS011;8539;53.188;8.696;2023-04-01T23:20:10;10.85;;;2.63;;
16845;SDS011;8539;53.188;8.696;2023-04-01T23:28:28;4.18;;;2.25;;
16845;SDS011;8539;53.188;8.696;2023-04-01T23:31:03;2.72;;;1.90;;
16845;SDS011;8539;53.188;8.696;2023-04-01T23:33:29;4.85;;;2.53;;
16845;SDS011;8539;53.188;8.696;2023-04-01T23:35:57;6.53;;;2.13;;
16845;SDS011;8539;53.188;8.696;2023-04-01T23:38:34;11.45;;;2.13;;
16845;SDS011;8539;53.188;8.696;2023-04-01T23:41:03;6.65;;;2.38;;
16845;SDS011;8539;53.188;8.696;2023-04-01T23:43:32;3.83;;;2.15;;
16845;SDS011;8539;53.188;8.696;2023-04-01T23:46:03;6.82;;;2.38;;
16845;SDS011;8539;53.188;8.696;2023-04-01T23:48:35;8.13;;;2.17;;
16845;SDS011;8539;53.188;8.696;2023-04-01T23:53:41;4.30;;;2.63;;
16845;SDS011;8539;53.188;8.696;2023-04-01T23:56:10;7.30;;;2.33;;
